Time;durP1;ratioP1;P1;durP2;ratioP2;P2;SDS_P1;SDS_P2;PMS_P1;PMS_P2;Temp;Humidity;BMP_temperature;BMP_pressure;BME280_temperature;BME280_humidity;BME280_pressure;Samples;Min_cycle;Max_cycle;Signal;HPM_P1;HPM_P2
2022/01/14 00:00:53;;;;;;;;;54.00;44.25;;;;;1.56;67.25;102560.91;146596;599;47010;-77
2022/01/14 00:03:45;;;;;;;;;54.50;42.75;;;;;1.54;66.91;102554.69;146598;634;46917;-77
2022/01/14 00:06:38;;;;;;;;;45.00;33.25;;;;;1.51;67.20;102560.34;146601;576;46010;-78
2022/01/14 00:09:31;;;;;;;;;43.50;32.50;;;;;1.49;67.60;102563.44;146598;591;46008;-77
2022/01/14 00:12:27;;;;;;;;;44.25;37.50;;;;;1.51;66.79;102567.09;146602;628;46010;-78
2022/01/14 00:15:26;;;;;;;;;40.50;37.00;;;;;1.52;67.36;102562.16;146600;652;46008;-77
2022/01/14 00:18:19;;;;;;;;;42.25;36.00;;;;;1.55;67.30;102561.59;146602;628;46010;-78
2022/01/14 00:21:11;;;;;;;;;47.75;40.00;;;;;1.55;67.87;102556.50;146602;593;46008;-78
2022/01/14 00:24:12;;;;;;;;;42.75;37.00;;;;;1.54;68.02;102544.47;146598;585;46013;-79
2022/01/14 00:33:25;;;;;;;;;50.00;41.00;;;;;1.56;68.08;102543.00;146601;564;46012;-78
2022/01/14 00:36:18;;;;;;;;;56.50;43.25;;;;;1.54;68.42;102540.25;146592;566;47911;-80
2022/01/14 00:39:15;;;;;;;;;51.75;40.25;;;;;1.52;69.05;102540.81;146599;612;46008;-79
2022/01/14 00:42:07;;;;;;;;;49.50;40.00;;;;;1.51;69.10;102539.00;146600;648;46017;-78
2022/01/14 00:44:59;;;;;;;;;52.25;40.25;;;;;1.48;68.47;102528.41;146600;608;46008;-79
2022/01/14 00:47:52;;;;;;;;;48.00;39.00;;;;;1.50;68.60;102526.94;146598;608;46016;-78
2022/01/14 00:50:44;;;;;;;;;55.25;44.00;;;;;1.47;69.04;102532.63;146599;569;46008;-79
2022/01/14 00:53:36;;;;;;;;;57.50;42.50;;;;;1.46;68.81;102525.66;146597;580;46017;-77
2022/01/14 00:57:01;;;;;;;;;49.75;41.75;;;;;1.44;68.86;102533.91;146602;644;46020;-79
2022/01/14 00:59:44;;;;;;;;;50.75;40.75;;;;;1.39;69.16;102534.25;146600;593;46010;-77
2022/01/14 01:02:36;;;;;;;;;51.75;39.75;;;;;1.36;68.73;102531.34;146598;642;47008;-78
2022/01/14 01:05:28;;;;;;;;;47.50;39.75;;;;;1.36;68.75;102538.09;146597;605;46016;-79
2022/01/14 01:08:24;;;;;;;;;46.50;38.75;;;;;1.37;68.67;102533.19;146598;586;46020;-81
2022/01/14 01:11:23;;;;;;;;;43.75;38.00;;;;;1.37;68.03;102537.38;146598;629;46010;-76
2022/01/14 01:14:33;;;;;;;;;43.00;35.00;;;;;1.35;67.60;102520.97;146600;642;46020;-77
2022/01/14 01:17:25;;;;;;;;;40.25;32.75;;;;;1.36;67.16;102515.09;146597;589;46016;-75
2022/01/14 01:20:18;;;;;;;;;42.75;36.75;;;;;1.35;66.88;102514.19;146601;569;46020;-76
2022/01/14 01:23:10;;;;;;;;;43.25;33.25;;;;;1.35;66.41;102503.06;146600;578;46013;-75
2022/01/14 01:26:11;;;;;;;;;43.75;34.00;;;;;1.34;66.26;102506.34;146600;578;46021;-78
2022/01/14 01:32:25;;;;;;;;;32.50;29.75;;;;;1.25;66.30;102495.06;146599;617;47008;-74
2022/01/14 01:35:21;;;;;;;;;37.75;33.25;;;;;1.18;66.75;102490.87;146595;611;46025;-76
2022/01/14 01:38:16;;;;;;;;;44.50;36.50;;;;;1.13;67.28;102479.22;146597;580;47008;-75
2022/01/14 01:41:12;;;;;;;;;47.00;36.25;;;;;1.10;67.43;102472.09;146598;605;46911;-76
2022/01/14 01:44:06;;;;;;;;;34.50;30.25;;;;;1.08;67.46;102470.09;146603;578;46008;-76
2022/01/14 01:46:59;;;;;;;;;43.00;35.00;;;;;1.07;67.12;102463.16;146595;577;47010;-79
2022/01/14 01:49:51;;;;;;;;;34.50;31.75;;;;;1.03;66.42;102451.69;146600;675;46020;-78
2022/01/14 01:52:44;;;;;;;;;35.00;29.00;;;;;1.01;66.01;102457.34;146597;602;46017;-76
2022/01/14 01:55:37;;;;;;;;;33.50;33.50;;;;;1.02;65.67;102443.84;146602;780;46008;-78
2022/01/14 01:58:29;;;;;;;;;35.75;33.75;;;;;1.03;65.51;102441.47;146597;569;47010;-78
2022/01/14 02:01:21;;;;;;;;;38.00;29.00;;;;;1.05;66.34;102437.44;146599;584;46021;-77
2022/01/14 02:04:14;;;;;;;;;38.25;34.25;;;;;1.09;66.29;102436.13;146594;732;46016;-77
2022/01/14 02:07:06;;;;;;;;;45.75;36.75;;;;;1.09;66.81;102433.59;146599;598;46020;-76
2022/01/14 02:10:02;;;;;;;;;53.50;39.00;;;;;1.07;66.75;102423.22;146598;637;46017;-75
2022/01/14 02:12:54;;;;;;;;;37.75;32.75;;;;;1.11;66.77;102421.91;146598;624;46008;-75
2022/01/14 02:15:50;;;;;;;;;39.00;32.50;;;;;1.11;66.35;102420.25;146599;572;46010;-75
2022/01/14 02:18:59;;;;;;;;;33.75;27.75;;;;;1.12;65.62;102419.56;146600;654;45048;-74
2022/01/14 02:22:13;;;;;;;;;29.50;23.50;;;;;1.15;65.36;102416.41;146595;706;47010;-78
2022/01/14 02:25:07;;;;;;;;;39.75;32.00;;;;;1.14;64.82;102414.59;146599;573;46021;-75
2022/01/14 02:28:01;;;;;;;;;36.50;29.00;;;;;1.13;64.54;102412.78;146596;584;47010;-76
2022/01/14 02:30:54;;;;;;;;;39.75;31.00;;;;;1.11;64.72;102401.47;146599;575;46020;-84
2022/01/14 02:33:47;;;;;;;;;39.50;30.00;;;;;1.07;64.61;102401.88;146598;580;46910;-79
2022/01/14 02:36:39;;;;;;;;;36.25;34.75;;;;;1.02;65.35;102398.75;146598;666;46020;-80
2022/01/14 02:39:31;;;;;;;;;40.00;30.75;;;;;0.99;65.86;102394.94;146595;609;47010;-78
2022/01/14 02:42:23;;;;;;;;;37.75;30.50;;;;;0.92;65.63;102383.13;146601;572;46008;-77
2022/01/14 02:45:16;;;;;;;;;42.25;32.00;;;;;0.90;65.20;102382.00;146596;570;46911;-77
2022/01/14 02:48:09;;;;;;;;;39.00;33.25;;;;;0.89;65.28;102383.66;146599;712;46020;-77
2022/01/14 02:51:10;;;;;;;;;37.00;29.00;;;;;0.91;65.01;102394.97;146593;612;47012;-76
2022/01/14 02:57:25;;;;;;;;;44.25;35.50;;;;;0.92;65.41;102373.81;146598;577;46012;-75
2022/01/14 03:00:19;;;;;;;;;38.75;30.25;;;;;0.91;65.34;102369.44;146600;615;47008;-79
2022/01/14 03:03:13;;;;;;;;;36.00;28.50;;;;;0.90;64.86;102370.19;146598;614;46016;-78
2022/01/14 03:06:07;;;;;;;;;33.75;29.75;;;;;0.92;65.49;102373.81;146597;602;46020;-78
2022/01/14 03:09:01;;;;;;;;;47.00;36.00;;;;;0.96;65.53;102376.72;146596;613;46911;-77
2022/01/14 03:12:05;;;;;;;;;41.50;36.25;;;;;0.94;65.61;102375.66;146601;620;45917;-80
2022/01/14 03:14:57;;;;;;;;;45.00;36.00;;;;;0.92;65.50;102378.00;146595;579;46016;-81
2022/01/14 03:17:49;;;;;;;;;59.00;45.50;;;;;0.87;66.19;102377.50;146598;564;47008;-74
2022/01/14 03:20:54;;;;;;;;;53.50;41.25;;;;;0.85;66.28;102371.28;146596;580;46010;-74
2022/01/14 03:24:02;;;;;;;;;35.00;32.50;;;;;0.83;66.32;102364.16;146602;575;46008;-77
2022/01/14 03:26:56;;;;;;;;;45.50;37.00;;;;;0.81;66.18;102364.00;146599;566;46016;-76
2022/01/14 03:29:48;;;;;;;;;44.75;37.50;;;;;0.83;66.09;102374.38;146602;587;46020;-76
2022/01/14 03:32:40;;;;;;;;;31.75;24.50;;;;;0.82;65.60;102385.34;146596;564;46016;-76
2022/01/14 03:35:33;;;;;;;;;50.25;38.50;;;;;0.83;66.56;102382.03;146601;598;45020;-78
2022/01/14 03:38:25;;;;;;;;;45.25;35.75;;;;;0.83;65.86;102380.41;146597;578;46011;-77
2022/01/14 03:41:17;;;;;;;;;42.75;35.75;;;;;0.84;65.57;102381.28;146599;601;46020;-76
2022/01/14 03:44:10;;;;;;;;;47.25;36.75;;;;;0.84;65.60;102383.84;146597;635;46911;-74
2022/01/14 03:47:02;;;;;;;;;53.25;42.00;;;;;0.82;65.69;102385.34;146600;598;46020;-77
2022/01/14 03:49:55;;;;;;;;;49.50;39.50;;;;;0.84;65.60;102394.06;146600;604;46016;-76
2022/01/14 03:52:47;;;;;;;;;52.75;37.50;;;;;0.83;65.63;102388.06;146603;596;46008;-75
2022/01/14 03:55:39;;;;;;;;;44.25;37.50;;;;;0.86;65.90;102393.53;146595;574;46016;-75
2022/01/14 03:58:32;;;;;;;;;40.50;34.75;;;;;0.85;65.87;102391.72;146599;562;46020;-77
2022/01/14 04:01:24;;;;;;;;;51.75;38.50;;;;;0.87;65.80;102395.38;146598;565;46911;-78
2022/01/14 04:04:16;;;;;;;;;61.25;50.25;;;;;0.89;65.92;102398.06;146598;600;46020;-74
2022/01/14 04:07:09;;;;;;;;;58.50;44.25;;;;;0.87;65.94;102399.53;146597;569;46016;-74
2022/01/14 04:10:02;;;;;;;;;57.25;43.75;;;;;0.86;65.94;102393.53;146602;620;45917;-71
2022/01/14 04:13:00;;;;;;;;;47.00;40.75;;;;;0.90;65.90;102405.94;146595;677;47010;-82
2022/01/14 04:15:52;;;;;;;;;46.50;38.25;;;;;0.92;66.13;102404.44;146602;595;46021;-75
2022/01/14 04:18:45;;;;;;;;;60.75;49.25;;;;;0.95;66.72;102411.56;146598;589;46911;-74
2022/01/14 04:21:38;;;;;;;;;39.50;34.75;;;;;0.96;66.07;102404.81;146602;623;46021;-72
2022/01/14 04:24:30;;;;;;;;;39.00;33.75;;;;;0.94;65.50;102412.31;146598;604;46016;-85
2022/01/14 04:27:22;;;;;;;;;40.75;34.25;;;;;0.93;65.36;102410.47;146602;580;45020;-87
2022/01/14 04:30:16;;;;;;;;;40.00;32.75;;;;;0.94;64.48;102408.84;146595;631;47011;-87
2022/01/14 04:33:09;;;;;;;;;40.00;34.50;;;;;0.96;64.96;102409.91;146601;584;46008;-80
2022/01/14 04:36:02;;;;;;;;;45.50;35.25;;;;;0.99;65.00;102415.38;146598;574;46017;-79
2022/01/14 04:38:54;;;;;;;;;37.25;30.50;;;;;1.03;65.27;102415.00;146603;569;46021;-76
2022/01/14 04:41:47;;;;;;;;;39.00;36.50;;;;;1.06;64.58;102413.72;146598;600;46911;-73
2022/01/14 04:44:39;;;;;;;;;46.50;36.75;;;;;1.09;64.64;102408.03;146602;626;47008;-75
2022/01/14 04:47:44;;;;;;;;;50.50;41.50;;;;;1.07;63.90;102406.97;146598;646;46010;-75
2022/01/14 04:50:37;;;;;;;;;66.75;52.50;;;;;1.04;64.70;102410.06;146600;608;46020;-75
2022/01/14 04:53:30;;;;;;;;;61.00;48.50;;;;;1.00;64.99;102419.75;146598;570;46010;-75
2022/01/14 04:56:22;;;;;;;;;39.25;33.50;;;;;0.86;65.46;102411.41;146600;593;46008;-82
2022/01/14 04:59:14;;;;;;;;;41.75;34.25;;;;;0.69;65.05;102412.00;146594;576;47010;-80
2022/01/14 05:02:07;;;;;;;;;35.50;32.75;;;;;0.57;65.50;102407.09;146599;740;46008;-81
2022/01/14 05:05:00;;;;;;;;;87.33;70.67;;;;;0.50;66.46;102407.06;146601;584;46911;-80
2022/01/14 05:07:52;;;;;;;;;56.25;40.25;;;;;0.43;66.93;102400.34;146603;581;46008;-79
2022/01/14 05:14:06;;;;;;;;;64.25;50.50;;;;;0.36;67.40;102401.25;146599;592;47008;-77
2022/01/14 05:16:58;;;;;;;;;65.00;49.00;;;;;0.34;67.82;102410.38;146596;565;47010;-77
2022/01/14 05:19:51;;;;;;;;;62.50;49.25;;;;;0.34;68.17;102404.34;146601;637;46008;-84
2022/01/14 05:22:43;;;;;;;;;66.25;53.00;;;;;0.29;68.21;102398.72;146593;564;46017;-85
2022/01/14 05:25:35;;;;;;;;;77.33;59.00;;;;;0.20;67.86;102402.72;146601;580;46008;-85
2022/01/14 05:28:27;;;;;;;;;39.50;35.75;;;;;0.11;68.59;102401.62;146598;564;46010;-77
2022/01/14 05:31:20;;;;;;;;;54.00;36.75;;;;;0.02;68.78;102398.88;146599;582;46008;-76
2022/01/14 05:34:12;;;;;;;;;40.25;36.00;;;;;-0.07;69.02;102410.53;146595;578;47010;-76
2022/01/14 05:37:06;;;;;;;;;57.25;44.00;;;;;-0.15;69.07;102404.53;146601;569;46021;-75
2022/01/14 05:39:58;;;;;;;;;57.25;47.00;;;;;-0.19;69.28;102404.84;146598;600;46030;-77
2022/01/14 05:42:51;;;;;;;;;65.00;48.50;;;;;-0.22;69.40;102390.84;146600;602;47009;-74
2022/01/14 05:45:43;;;;;;;;;41.75;35.50;;;;;-0.26;68.82;102397.22;146595;592;46010;-76
2022/01/14 05:48:35;;;;;;;;;40.75;34.25;;;;;-0.27;69.34;102390.31;146601;613;46008;-71
2022/01/14 05:51:27;;;;;;;;;33.00;31.50;;;;;-0.27;69.11;102385.19;146597;598;46016;-75
2022/01/14 05:54:21;;;;;;;;;37.75;33.25;;;;;-0.27;68.57;102382.66;146602;591;46008;-77
2022/01/14 05:57:14;;;;;;;;;58.00;48.25;;;;;-0.24;69.12;102377.94;146599;578;46010;-76
2022/01/14 06:00:09;;;;;;;;;34.50;30.25;;;;;-0.19;68.75;102387.00;146601;649;46008;-76
2022/01/14 06:03:02;;;;;;;;;32.75;29.00;;;;;-0.17;68.72;102385.56;146598;588;46911;-75
2022/01/14 06:05:54;;;;;;;;;36.25;29.50;;;;;-0.18;68.51;102378.66;146600;623;46020;-75
2022/01/14 06:08:49;;;;;;;;;35.75;30.00;;;;;-0.17;68.84;102377.00;146597;585;46010;-75
2022/01/14 06:11:41;;;;;;;;;33.75;28.00;;;;;-0.11;68.49;102367.56;146601;617;46008;-74
2022/01/14 06:14:33;;;;;;;;;37.75;32.50;;;;;-0.08;68.21;102363.72;146595;569;46010;-78
2022/01/14 06:17:26;;;;;;;;;53.25;40.50;;;;;-0.01;68.15;102373.03;146600;641;46020;-74
2022/01/14 06:20:18;;;;;;;;;53.00;43.75;;;;;0.06;67.47;102369.56;146597;580;46910;-73
2022/01/14 06:23:11;;;;;;;;;51.75;40.25;;;;;0.18;66.16;102369.37;146600;648;46008;-74
2022/01/14 06:26:04;;;;;;;;;82.00;62.50;;;;;0.32;65.66;102375.22;146597;613;46016;-76
2022/01/14 06:28:56;;;;;;;;;63.25;48.00;;;;;0.49;65.51;102361.87;146599;564;46008;-75
2022/01/14 06:31:48;;;;;;;;;57.00;44.75;;;;;1.02;66.20;102360.44;146596;600;47010;-76
2022/01/14 06:34:40;;;;;;;;;58.50;43.25;;;;;1.99;65.22;102348.37;146601;583;46025;-77
2022/01/14 06:37:33;;;;;;;;;49.25;39.50;;;;;3.11;62.41;102345.19;146596;626;47010;-75
2022/01/14 06:40:25;;;;;;;;;55.00;41.00;;;;;4.22;58.18;102342.25;146599;641;46020;-76
2022/01/14 06:43:21;;;;;;;;;53.00;41.25;;;;;5.22;58.80;102342.88;146596;588;46016;-76
2022/01/14 06:46:13;;;;;;;;;51.75;41.75;;;;;6.10;53.42;102331.66;146600;577;47008;-76
2022/01/14 06:49:05;;;;;;;;;51.00;40.50;;;;;6.80;55.36;102327.03;146597;570;47010;-80
2022/01/14 06:51:58;;;;;;;;;47.25;38.25;;;;;6.47;51.96;102151.38;146596;646;47008;-81
2022/01/14 06:54:50;;;;;;;;;49.50;41.25;;;;;7.91;49.72;102312.00;146596;594;46010;-82
2022/01/14 06:57:42;;;;;;;;;48.75;38.50;;;;;8.14;49.89;102307.16;146598;573;46021;-79
2022/01/14 07:00:35;;;;;;;;;48.00;39.00;;;;;8.23;48.50;102300.19;146597;570;47010;-79
2022/01/14 07:03:27;;;;;;;;;43.25;36.00;;;;;8.19;49.32;102300.69;146599;585;47008;-78
2022/01/14 07:06:19;;;;;;;;;38.00;33.25;;;;;8.27;45.57;102291.03;146597;593;46016;-78
2022/01/14 07:09:12;;;;;;;;;43.50;34.25;;;;;8.36;47.38;102285.75;146599;735;46020;-84
2022/01/14 07:12:04;;;;;;;;;37.75;33.75;;;;;8.58;46.72;102288.50;146598;627;46010;-78
2022/01/14 07:14:57;;;;;;;;;43.25;35.75;;;;;8.70;46.02;102287.84;146600;636;47008;-79
2022/01/14 07:17:49;;;;;;;;;46.75;36.00;;;;;8.84;45.25;102282.91;146596;581;47010;-82
2022/01/14 07:20:41;;;;;;;;;36.25;33.25;;;;;8.91;46.40;102280.03;146602;616;46018;-80
2022/01/14 07:23:33;;;;;;;;;38.25;31.75;;;;;8.93;44.38;102269.03;146593;573;47010;-77
2022/01/14 07:26:25;;;;;;;;;36.25;32.50;;;;;8.81;43.21;102262.84;146598;570;47008;-83
2022/01/14 07:29:17;;;;;;;;;35.25;32.25;;;;;8.55;44.72;102265.88;146594;574;46911;-81
2022/01/14 07:32:10;;;;;;;;;28.00;25.75;;;;;8.38;44.44;102260.91;146604;588;45917;-83
2022/01/14 07:35:02;;;;;;;;;35.25;29.75;;;;;8.25;42.97;102261.56;146597;564;46017;-85
2022/01/14 07:37:55;;;;;;;;;35.25;28.50;;;;;8.03;43.30;102258.81;146603;563;46020;-85
2022/01/14 07:40:47;;;;;;;;;37.00;31.50;;;;;7.70;44.30;102247.41;146597;617;46013;-81
2022/01/14 07:43:39;;;;;;;;;30.50;28.75;;;;;7.33;42.93;102246.75;146600;689;46020;-84
2022/01/14 07:46:32;;;;;;;;;35.00;30.25;;;;;7.07;46.58;102253.81;146594;581;47010;-81
2022/01/14 07:49:25;;;;;;;;;26.00;24.00;;;;;6.89;45.48;102251.44;146603;610;45021;-82
2022/01/14 07:52:17;;;;;;;;;30.75;26.50;;;;;6.76;46.72;102245.94;146596;589;46016;-75
2022/01/14 07:55:10;;;;;;;;;35.75;24.25;;;;;6.56;44.63;102245.78;146598;635;46020;-80
2022/01/14 07:58:03;;;;;;;;;37.00;27.50;;;;;6.37;46.87;102248.34;146597;579;46027;-77
2022/01/14 08:00:55;;;;;;;;;29.75;26.75;;;;;6.23;45.24;102244.47;146602;587;46010;-78
2022/01/14 08:03:47;;;;;;;;;36.25;30.75;;;;;6.16;46.58;102231.78;146598;673;46011;-79
2022/01/14 08:06:46;;;;;;;;;36.00;28.75;;;;;6.11;46.80;102238.22;146605;598;46020;-80
2022/01/14 08:09:38;;;;;;;;;30.25;29.00;;;;;6.19;49.40;102227.81;146596;602;47010;-80
2022/01/14 08:12:30;;;;;;;;;35.25;27.00;;;;;6.29;47.09;102215.78;146605;648;46021;-77
2022/01/14 08:15:23;;;;;;;;;37.75;29.00;;;;;6.36;48.00;102226.81;146599;681;46010;-78
2022/01/14 08:18:15;;;;;;;;;35.00;30.50;;;;;6.47;48.34;102218.38;146601;642;47008;-77
2022/01/14 08:21:08;;;;;;;;;34.50;27.25;;;;;6.53;47.33;102223.19;146602;618;46911;-78
2022/01/14 08:24:00;;;;;;;;;28.75;23.25;;;;;6.53;47.16;102218.03;146600;596;46020;-80
2022/01/14 08:26:53;;;;;;;;;30.50;27.75;;;;;6.63;45.52;102214.62;146599;648;47010;-79
2022/01/14 08:29:47;;;;;;;;;30.75;23.50;;;;;6.68;44.38;102210.81;146603;591;46020;-78
2022/01/14 08:32:39;;;;;;;;;30.25;25.75;;;;;6.75;45.75;102217.41;146597;604;46012;-82
2022/01/14 08:35:32;;;;;;;;;29.25;27.00;;;;;6.80;44.24;102208.44;146605;564;45021;-77
2022/01/14 08:38:24;;;;;;;;;34.25;26.50;;;;;6.83;44.90;102204.47;146602;611;46911;-80
2022/01/14 08:41:16;;;;;;;;;33.75;27.00;;;;;6.79;44.42;102212.69;146603;664;46021;-78
2022/01/14 08:44:09;;;;;;;;;32.25;27.75;;;;;6.82;44.55;102214.62;146596;594;46033;-79
2022/01/14 08:47:01;;;;;;;;;25.00;21.75;;;;;6.83;45.17;102208.72;146600;573;46020;-80
2022/01/14 08:49:53;;;;;;;;;33.75;25.25;;;;;6.97;46.50;102207.34;146598;622;46010;-78
2022/01/14 08:52:46;;;;;;;;;32.75;29.00;;;;;7.15;45.74;102201.25;146598;583;46008;-74
2022/01/14 08:55:39;;;;;;;;;34.25;28.00;;;;;7.36;45.22;102198.00;146601;599;46011;-70
2022/01/14 08:58:31;;;;;;;;;36.75;30.25;;;;;7.61;44.94;102206.19;146605;590;46008;-71
2022/01/14 09:01:23;;;;;;;;;32.50;24.25;;;;;7.73;42.85;102205.44;146596;603;46016;-72
2022/01/14 09:04:15;;;;;;;;;31.25;28.50;;;;;7.83;44.36;102195.13;146601;584;46021;-71
2022/01/14 09:07:08;;;;;;;;;34.75;29.50;;;;;7.93;43.79;102189.97;146596;767;46019;-70
2022/01/14 09:10:00;;;;;;;;;31.00;26.25;;;;;8.00;45.35;102186.22;146600;621;46020;-70
2022/01/14 09:12:52;;;;;;;;;35.25;28.00;;;;;8.16;45.71;102183.25;146595;574;46010;-70
2022/01/14 09:15:45;;;;;;;;;33.25;25.50;;;;;8.40;44.92;102184.44;146601;625;46020;-70
2022/01/14 09:18:37;;;;;;;;;29.25;26.25;;;;;8.55;45.15;102171.09;146596;652;47010;-70
2022/01/14 09:21:29;;;;;;;;;30.75;26.50;;;;;8.73;44.77;102161.38;146602;756;46008;-70
2022/01/14 09:24:22;;;;;;;;;30.75;27.25;;;;;8.91;44.38;102154.22;146594;618;48911;-70
2022/01/14 09:27:15;;;;;;;;;29.50;26.25;;;;;9.12;42.93;102155.00;146601;637;46021;-70
2022/01/14 09:30:09;;;;;;;;;22.50;20.25;;;;;9.20;43.32;102156.53;146597;573;46911;-71
2022/01/14 09:33:01;;;;;;;;;27.00;23.50;;;;;9.21;40.85;102147.97;146601;569;46021;-71
2022/01/14 09:35:54;;;;;;;;;26.25;22.75;;;;;9.14;41.41;102148.28;146598;580;46016;-70
2022/01/14 09:38:46;;;;;;;;;33.50;28.25;;;;;9.12;42.27;102144.66;146601;581;46020;-70
2022/01/14 09:41:39;;;;;;;;;28.50;26.00;;;;;9.24;43.75;102148.22;146599;723;45911;-70
2022/01/14 09:44:32;;;;;;;;;27.50;22.75;;;;;9.45;43.27;102136.06;146601;571;46020;-70
2022/01/14 09:47:25;;;;;;;;;30.00;24.00;;;;;9.64;44.47;102128.03;146596;624;46016;-70
2022/01/14 09:50:17;;;;;;;;;33.25;28.00;;;;;9.85;43.86;102133.97;146601;611;45021;-70
2022/01/14 09:53:09;;;;;;;;;38.75;29.25;;;;;10.10;46.47;102128.06;146596;753;46010;-70
2022/01/14 09:56:02;;;;;;;;;26.25;23.75;;;;;10.39;44.32;102106.94;146601;572;46008;-71
2022/01/14 09:58:55;;;;;;;;;25.75;22.25;;;;;10.56;44.59;102105.56;146596;711;46012;-71
2022/01/14 10:01:49;;;;;;;;;24.75;21.25;;;;;10.72;42.27;102107.63;146600;563;46020;-71
2022/01/14 10:04:45;;;;;;;;;32.25;27.00;;;;;10.83;42.62;102098.91;146598;638;46016;-71
2022/01/14 10:07:38;;;;;;;;;37.75;32.00;;;;;10.78;42.15;102101.19;146599;582;47020;-71
2022/01/14 10:10:31;;;;;;;;;34.75;30.00;;;;;10.75;42.99;102089.69;146596;570;46017;-71
2022/01/14 10:13:25;;;;;;;;;33.25;29.25;;;;;10.79;43.44;102079.62;146599;565;46020;-71
2022/01/14 10:16:20;;;;;;;;;41.75;33.50;;;;;10.88;44.61;102070.69;146595;642;46016;-70
2022/01/14 10:19:26;;;;;;;;;26.25;24.75;;;;;11.06;43.83;102054.72;146595;564;47008;-70
2022/01/14 10:22:36;;;;;;;;;18.50;17.75;;;;;11.23;45.17;102050.72;146596;584;46010;-70
2022/01/14 10:25:28;;;;;;;;;35.00;29.25;;;;;11.25;42.24;102049.12;146600;565;46020;-71
2022/01/14 10:28:26;;;;;;;;;40.75;33.25;;;;;10.96;41.88;102007.25;146597;563;46910;-71
2022/01/14 10:31:18;;;;;;;;;29.75;25.25;;;;;10.92;41.63;102034.69;146599;566;46020;-70
2022/01/14 10:36:54;;;;;;;;;28.75;25.25;;;;;10.80;41.61;102020.84;146608;585;46020;-70
2022/01/14 10:39:54;;;;;;;;;28.50;25.75;;;;;10.83;44.49;102015.88;146603;599;46016;-70
2022/01/14 10:42:47;;;;;;;;;41.75;34.00;;;;;10.93;41.63;102020.00;146606;629;45021;-70
2022/01/14 10:45:42;;;;;;;;;31.50;26.25;;;;;11.00;42.25;102005.00;146601;618;46016;-71
2022/01/14 10:48:43;;;;;;;;;31.50;27.00;;;;;11.07;41.12;102003.72;146603;570;45021;-70
2022/01/14 10:51:35;;;;;;;;;34.00;28.75;;;;;11.09;40.26;101992.66;146601;563;46016;-70
2022/01/14 10:54:45;;;;;;;;;25.50;22.75;;;;;11.17;43.25;101987.06;146601;593;46008;-70
2022/01/14 10:57:38;;;;;;;;;22.75;22.50;;;;;11.23;40.20;101985.78;146602;572;46017;-70
2022/01/14 11:00:30;;;;;;;;;22.25;18.25;;;;;11.30;41.86;101979.31;146605;699;46020;-71
2022/01/14 11:03:42;;;;;;;;;19.00;16.25;;;;;11.38;42.73;101974.66;146605;583;46010;-70
2022/01/14 11:06:40;;;;;;;;;29.25;22.25;;;;;11.34;40.15;101986.56;146603;674;46020;-70
2022/01/14 11:09:33;;;;;;;;;21.50;18.50;;;;;11.29;40.35;101973.22;146603;602;46013;-71
2022/01/14 11:12:25;;;;;;;;;24.00;20.75;;;;;11.37;41.86;101968.59;146602;575;46008;-69
2022/01/14 11:15:18;;;;;;;;;30.00;26.00;;;;;11.49;41.97;101960.69;146602;596;46016;-68
2022/01/14 11:18:12;;;;;;;;;24.75;21.25;;;;;11.64;39.65;101956.53;146602;671;46009;-71
2022/01/14 11:24:29;;;;;;;;;21.00;20.25;;;;;11.76;42.99;101940.84;146602;583;46008;-72
2022/01/14 11:27:22;;;;;;;;;25.25;22.00;;;;;11.83;39.44;101943.03;146601;625;46911;-70
2022/01/14 11:30:18;;;;;;;;;26.25;19.25;;;;;11.80;40.20;101929.84;146607;612;46008;-72
2022/01/14 11:33:12;;;;;;;;;28.50;26.00;;;;;11.74;39.92;101922.56;146602;599;46010;-71
2022/01/14 11:36:07;;;;;;;;;30.75;26.50;;;;;11.74;40.15;101916.44;146602;569;46008;-72
2022/01/14 11:38:59;;;;;;;;;24.00;20.50;;;;;11.77;40.46;101906.25;146604;599;46010;-71
2022/01/14 11:42:00;;;;;;;;;29.75;24.25;;;;;11.83;40.68;101898.88;146603;579;46020;-71
2022/01/14 11:44:58;;;;;;;;;24.25;23.00;;;;;11.85;39.43;101897.31;146601;582;46016;-71
2022/01/14 11:48:00;;;;;;;;;21.75;20.75;;;;;11.87;39.70;101881.78;146601;576;46021;-71
2022/01/14 11:50:53;;;;;;;;;29.50;24.00;;;;;11.93;41.25;101880.53;146602;595;46016;-71
2022/01/14 11:53:56;;;;;;;;;25.00;23.25;;;;;12.18;40.44;101876.84;146602;591;46008;-70
2022/01/14 11:56:50;;;;;;;;;22.00;17.50;;;;;12.29;37.82;101868.03;146607;605;45017;-71
2022/01/14 11:59:44;;;;;;;;;27.50;22.50;;;;;12.23;34.44;101849.44;146601;637;46008;-71
2022/01/14 12:02:42;;;;;;;;;25.50;22.50;;;;;12.21;39.24;101851.97;146601;604;46017;-71
2022/01/14 12:05:35;;;;;;;;;23.25;20.00;;;;;12.30;39.41;101842.91;146604;601;46020;-71
2022/01/14 12:08:35;;;;;;;;;22.75;17.25;;;;;12.51;39.30;101828.62;146604;578;46011;-70
2022/01/14 12:11:27;;;;;;;;;22.50;20.75;;;;;12.70;37.76;101810.72;146602;606;46021;-71
2022/01/14 12:14:45;;;;;;;;;19.75;18.50;;;;;12.92;42.91;101809.41;146602;619;45016;-71
2022/01/14 12:17:42;;;;;;;;;22.00;17.75;;;;;13.16;38.55;101799.53;146604;583;46021;-70
2022/01/14 12:20:34;;;;;;;;;21.25;19.75;;;;;13.32;36.74;101796.13;146600;578;45911;-71
2022/01/14 12:23:32;;;;;;;;;24.25;23.25;;;;;13.32;36.92;101791.81;146603;619;46020;-72
2022/01/14 12:26:25;;;;;;;;;30.00;25.50;;;;;13.20;35.21;101783.25;146602;598;46017;-70
2022/01/14 12:29:18;;;;;;;;;27.75;24.00;;;;;13.09;36.37;101771.34;146604;573;46020;-71
2022/01/14 12:32:15;;;;;;;;;38.50;34.75;;;;;13.07;38.21;101775.56;146602;664;46012;-71
2022/01/14 12:35:29;;;;;;;;;29.25;25.00;;;;;13.13;40.32;101770.69;146605;588;46020;-71
2022/01/14 12:38:25;;;;;;;;;29.50;26.75;;;;;13.39;40.06;101761.78;146600;608;45018;-71
2022/01/14 12:41:26;;;;;;;;;42.00;35.25;;;;;13.70;39.87;101755.69;146602;575;46012;-71
2022/01/14 12:44:21;;;;;;;;;45.75;35.25;;;;;13.98;39.53;101745.03;146601;577;46010;-71
2022/01/14 12:47:22;;;;;;;;;25.00;22.00;;;;;14.32;39.13;101738.19;146602;606;46008;-71
2022/01/14 12:50:15;;;;;;;;;22.50;19.50;;;;;14.63;38.17;101738.91;146601;581;45911;-72
2022/01/14 12:53:08;;;;;;;;;22.75;21.75;;;;;14.88;38.06;101720.16;146605;593;46020;-71
2022/01/14 12:56:03;;;;;;;;;24.00;23.75;;;;;15.15;37.85;101723.22;146599;569;46010;-72
2022/01/14 12:58:57;;;;;;;;;20.75;19.50;;;;;15.38;36.93;101713.88;146607;575;46020;-71
2022/01/14 13:01:54;;;;;;;;;29.25;26.50;;;;;15.57;34.44;101718.22;146603;598;46017;-73
2022/01/14 13:04:47;;;;;;;;;27.25;22.75;;;;;15.54;34.22;101705.91;146605;585;46008;-71
2022/01/14 13:07:40;;;;;;;;;20.75;19.25;;;;;15.45;32.05;101706.41;146602;587;46025;-72
2022/01/14 13:10:33;;;;;;;;;20.25;17.75;;;;;15.28;34.25;101706.41;146609;627;46008;-71
2022/01/14 13:13:29;;;;;;;;;20.75;17.25;;;;;15.28;36.51;101701.19;146601;580;46016;-72
2022/01/14 13:16:21;;;;;;;;;21.00;18.00;;;;;15.34;34.38;101691.03;146601;580;46020;-71
2022/01/14 13:19:39;;;;;;;;;22.25;22.00;;;;;15.41;38.78;101687.87;146600;569;46016;-71
2022/01/14 13:22:32;;;;;;;;;17.25;16.00;;;;;15.41;35.42;101687.87;146609;743;46008;-72
2022/01/14 13:25:28;;;;;;;;;26.50;23.75;;;;;15.48;34.23;101679.47;146600;614;46036;-72
2022/01/14 13:28:20;;;;;;;;;31.50;29.50;;;;;15.51;32.49;101684.84;146605;611;46020;-71
2022/01/14 13:31:13;;;;;;;;;18.75;18.75;;;;;15.43;32.41;101681.00;146601;562;46010;-72
2022/01/14 13:34:05;;;;;;;;;20.25;16.75;;;;;15.25;34.14;101670.56;146603;577;46020;-72
2022/01/14 13:36:58;;;;;;;;;23.50;21.75;;;;;15.20;34.72;101670.38;146600;630;45911;-73
2022/01/14 13:40:22;;;;;;;;;19.25;18.00;;;;;15.23;38.83;101667.91;146604;575;46020;-71